Time;durP1;ratioP1;P1;durP2;ratioP2;P2;SDS_P1;SDS_P2;PMS_P1;PMS_P2;Temp;Humidity;BMP_temperature;BMP_pressure;BME280_temperature;BME280_humidity;BME280_pressure;Samples;Min_cycle;Max_cycle;Signal;HPM_P1;HPM_P2
2021/09/17 00:00:42;;;;;;;52.05;6.10;;;;;;;;;;5112839;28;20440;-70
2021/09/17 00:03:09;;;;;;;47.58;6.28;;;;;;;;;;5108834;28;20547;-71
2021/09/17 00:05:35;;;;;;;158.32;9.57;;;;;;;;;;5109905;28;20471;-70
2021/09/17 00:08:01;;;;;;;67.05;7.07;;;;;;;;;;5109583;28;20483;-70
2021/09/17 00:10:27;;;;;;;108.82;8.60;;;;;;;;;;5109722;28;20103;-70
2021/09/17 00:12:53;;;;;;;104.15;7.85;;;;;;;;;;5112748;28;20523;-70
2021/09/17 00:15:19;;;;;;;65.40;7.47;;;;;;;;;;5109600;28;20026;-70
2021/09/17 00:17:46;;;;;;;51.72;7.07;;;;;;;;;;5109350;28;20035;-70
2021/09/17 00:20:13;;;;;;;17.75;6.13;;;;;;;;;;5109323;28;20024;-70
2021/09/17 00:22:39;;;;;;;37.65;6.40;;;;;;;;;;5109040;28;20093;-71
2021/09/17 00:25:06;;;;;;;15.05;5.47;;;;;;;;;;5111681;28;20023;-70
2021/09/17 00:27:32;;;;;;;10.52;5.70;;;;;;;;;;5110509;28;20170;-71
2021/09/17 00:29:58;;;;;;;7.55;4.60;;;;;;;;;;5108071;28;20425;-70
2021/09/17 00:32:24;;;;;;;6.50;4.07;;;;;;;;;;5109204;28;20026;-71
2021/09/17 00:34:50;;;;;;;8.00;3.95;;;;;;;;;;5108681;28;20031;-71
2021/09/17 00:37:16;;;;;;;8.77;4.22;;;;;;;;;;5109737;28;20020;-71
2021/09/17 00:39:42;;;;;;;24.25;4.75;;;;;;;;;;5097865;28;20352;-70
2021/09/17 00:42:08;;;;;;;19.13;4.30;;;;;;;;;;5108233;28;20111;-71
2021/09/17 00:44:34;;;;;;;33.28;4.97;;;;;;;;;;5101100;28;20089;-70
2021/09/17 00:47:00;;;;;;;9.13;4.70;;;;;;;;;;5098063;28;20031;-70
2021/09/17 00:49:26;;;;;;;11.65;4.32;;;;;;;;;;5108599;28;20036;-70
2021/09/17 00:51:53;;;;;;;13.77;4.45;;;;;;;;;;5112033;28;20020;-70
2021/09/17 00:54:19;;;;;;;14.68;4.40;;;;;;;;;;5108627;28;20030;-70
2021/09/17 00:56:46;;;;;;;9.60;4.28;;;;;;;;;;5108539;28;20046;-71
2021/09/17 00:59:12;;;;;;;10.18;3.40;;;;;;;;;;5108824;28;20039;-70
2021/09/17 01:01:39;;;;;;;9.55;3.47;;;;;;;;;;5108368;28;20037;-70
2021/09/17 01:04:05;;;;;;;6.30;3.22;;;;;;;;;;5110564;28;20022;-70
2021/09/17 01:06:31;;;;;;;14.80;5.45;;;;;;;;;;5110336;28;20023;-71
2021/09/17 01:08:58;;;;;;;15.98;4.65;;;;;;;;;;5108046;28;20373;-71
2021/09/17 01:11:25;;;;;;;9.73;4.53;;;;;;;;;;5108460;28;20015;-71
2021/09/17 01:13:51;;;;;;;9.80;3.60;;;;;;;;;;5107323;28;20035;-70
2021/09/17 01:16:18;;;;;;;59.53;5.60;;;;;;;;;;5108318;28;20550;-70
2021/09/17 01:18:44;;;;;;;41.50;4.57;;;;;;;;;;5111431;28;20483;-70
2021/09/17 01:21:10;;;;;;;37.05;4.78;;;;;;;;;;5107588;28;20239;-70
2021/09/17 01:23:36;;;;;;;184.38;8.73;;;;;;;;;;5107763;28;20055;-70
2021/09/17 01:26:02;;;;;;;82.13;5.47;;;;;;;;;;5108140;28;20055;-68
2021/09/17 01:28:30;;;;;;;232.23;8.00;;;;;;;;;;5108207;28;20090;-70
2021/09/17 01:30:56;;;;;;;;;;;;;;;;;;5109450;28;20075;-69
2021/09/17 01:33:22;;;;;;;111.68;5.45;;;;;;;;;;5109462;28;19999;-69
2021/09/17 01:36:08;;;;;;;25.48;3.45;;;;;;;;;;5108389;28;20024;-70
2021/09/17 01:38:35;;;;;;;29.10;3.30;;;;;;;;;;5106863;28;20032;-70
2021/09/17 01:41:01;;;;;;;21.95;2.97;;;;;;;;;;5107440;28;20020;-70
2021/09/17 01:43:27;;;;;;;33.10;2.85;;;;;;;;;;5107602;28;20460;-70
2021/09/17 01:45:54;;;;;;;42.90;3.20;;;;;;;;;;5093779;28;20096;-70
2021/09/17 01:48:20;;;;;;;88.68;3.75;;;;;;;;;;5108272;28;20606;-71
2021/09/17 01:50:46;;;;;;;56.80;3.45;;;;;;;;;;5107919;28;20390;-70
2021/09/17 01:53:12;;;;;;;47.47;4.55;;;;;;;;;;5105381;28;20066;-71
2021/09/17 01:55:38;;;;;;;97.82;4.15;;;;;;;;;;5094704;28;20032;-70
2021/09/17 01:58:05;;;;;;;218.07;7.75;;;;;;;;;;5109922;28;20038;-71
2021/09/17 02:00:31;;;;;;;124.32;5.63;;;;;;;;;;5109094;28;20024;-70
2021/09/17 02:02:57;;;;;;;74.60;4.63;;;;;;;;;;5107488;28;20046;-68
2021/09/17 02:05:23;;;;;;;72.15;4.53;;;;;;;;;;5107612;28;20107;-70
2021/09/17 02:07:49;;;;;;;85.40;4.90;;;;;;;;;;5107766;28;20032;-71
2021/09/17 02:10:15;;;;;;;100.75;5.00;;;;;;;;;;5107911;28;20053;-71
2021/09/17 02:12:41;;;;;;;104.82;4.85;;;;;;;;;;5110511;28;20031;-70
2021/09/17 02:15:08;;;;;;;40.13;4.03;;;;;;;;;;5106440;28;20103;-70
2021/09/17 02:17:34;;;;;;;38.70;3.85;;;;;;;;;;5108054;28;20510;-70
2021/09/17 02:20:00;;;;;;;60.70;4.32;;;;;;;;;;5107012;28;20387;-70
2021/09/17 02:22:26;;;;;;;61.38;4.28;;;;;;;;;;5107699;28;20039;-70
2021/09/17 02:24:52;;;;;;;12.73;3.30;;;;;;;;;;5110820;28;20070;-70
2021/09/17 02:27:18;;;;;;;27.70;3.20;;;;;;;;;;5108274;28;20055;-70
2021/09/17 02:29:44;;;;;;;46.75;5.57;;;;;;;;;;5107574;28;20070;-70
2021/09/17 02:32:11;;;;;;;21.42;3.17;;;;;;;;;;5106573;28;20055;-70
2021/09/17 02:34:37;;;;;;;105.20;4.63;;;;;;;;;;5107778;28;20028;-70
2021/09/17 02:37:03;;;;;;;28.27;4.15;;;;;;;;;;5110098;28;20028;-70
2021/09/17 02:39:29;;;;;;;17.48;2.40;;;;;;;;;;5107895;28;20391;-70
2021/09/17 02:41:55;;;;;;;22.05;2.63;;;;;;;;;;5106916;28;20042;-70
2021/09/17 02:44:21;;;;;;;43.00;3.20;;;;;;;;;;5106334;28;20319;-70
2021/09/17 02:46:47;;;;;;;25.95;3.10;;;;;;;;;;5103542;28;20046;-69
2021/09/17 02:49:13;;;;;;;17.17;3.20;;;;;;;;;;5093554;28;20044;-70
2021/09/17 02:51:39;;;;;;;51.15;3.28;;;;;;;;;;5110276;28;20058;-70
2021/09/17 02:54:05;;;;;;;43.35;2.65;;;;;;;;;;5110778;28;20034;-70
2021/09/17 02:56:31;;;;;;;74.35;3.25;;;;;;;;;;5104545;28;20024;-69
2021/09/17 02:58:57;;;;;;;127.10;3.88;;;;;;;;;;5099444;28;20494;-69
2021/09/17 03:01:23;;;;;;;100.63;2.95;;;;;;;;;;5111187;28;20019;-69
2021/09/17 03:03:49;;;;;;;61.78;2.70;;;;;;;;;;5114295;28;20032;-69
2021/09/17 03:06:15;;;;;;;39.28;2.17;;;;;;;;;;5111361;28;20026;-70
2021/09/17 03:08:41;;;;;;;26.77;2.03;;;;;;;;;;5110422;28;20473;-69
2021/09/17 03:11:07;;;;;;;30.50;2.08;;;;;;;;;;5110792;28;20114;-70
2021/09/17 03:13:33;;;;;;;15.27;2.50;;;;;;;;;;5110428;28;20035;-69
2021/09/17 03:16:00;;;;;;;26.75;2.80;;;;;;;;;;5113144;28;20027;-70
2021/09/17 03:18:26;;;;;;;104.95;4.35;;;;;;;;;;5111528;28;20020;-70
2021/09/17 03:20:52;;;;;;;88.05;3.42;;;;;;;;;;5110653;28;20027;-70
2021/09/17 03:23:19;;;;;;;62.33;3.00;;;;;;;;;;5110377;27;20033;-69
2021/09/17 03:25:45;;;;;;;53.17;2.75;;;;;;;;;;5110764;28;20387;-69
2021/09/17 03:28:11;;;;;;;59.30;4.15;;;;;;;;;;5111090;28;20052;-70
2021/09/17 03:30:38;;;;;;;63.33;3.53;;;;;;;;;;5112437;28;20031;-70
2021/09/17 03:33:04;;;;;;;149.07;5.20;;;;;;;;;;5110233;28;20089;-69
2021/09/17 03:35:30;;;;;;;24.23;2.47;;;;;;;;;;5109871;28;20159;-78
2021/09/17 03:37:56;;;;;;;46.67;2.92;;;;;;;;;;5109538;28;20032;-70
2021/09/17 03:40:22;;;;;;;17.08;2.10;;;;;;;;;;5103618;28;20030;-70
2021/09/17 03:42:49;;;;;;;105.25;4.88;;;;;;;;;;5102840;28;20026;-70
2021/09/17 03:45:15;;;;;;;66.60;2.92;;;;;;;;;;5102149;28;20081;-69
2021/09/17 03:47:41;;;;;;;116.18;3.70;;;;;;;;;;5102932;28;20031;-69
2021/09/17 03:50:07;;;;;;;47.83;2.65;;;;;;;;;;5104968;28;20024;-70
2021/09/17 03:52:33;;;;;;;56.05;2.55;;;;;;;;;;5107016;28;20143;-70
2021/09/17 03:54:59;;;;;;;35.63;2.60;;;;;;;;;;5112208;28;20379;-72
2021/09/17 03:57:25;;;;;;;57.75;2.50;;;;;;;;;;5110686;28;20402;-70
2021/09/17 03:59:51;;;;;;;62.28;2.53;;;;;;;;;;5109769;28;20084;-69
2021/09/17 04:02:17;;;;;;;24.17;2.25;;;;;;;;;;5109835;28;20057;-69
2021/09/17 04:04:43;;;;;;;31.38;2.95;;;;;;;;;;5109197;28;20027;-69
2021/09/17 04:07:10;;;;;;;93.53;3.63;;;;;;;;;;5111268;28;20206;-70
2021/09/17 04:09:36;;;;;;;95.72;3.63;;;;;;;;;;5111260;28;20441;-70
2021/09/17 04:12:02;;;;;;;69.38;3.33;;;;;;;;;;5109870;28;20532;-70
2021/09/17 04:14:28;;;;;;;120.95;4.38;;;;;;;;;;5108914;28;20393;-70
2021/09/17 04:16:54;;;;;;;29.80;2.58;;;;;;;;;;5108879;28;20083;-69
2021/09/17 04:19:20;;;;;;;69.20;3.45;;;;;;;;;;5109582;28;20454;-70
2021/09/17 04:21:46;;;;;;;68.55;2.95;;;;;;;;;;5108671;28;20023;-69
2021/09/17 04:24:12;;;;;;;49.33;2.47;;;;;;;;;;5108385;28;20032;-69
2021/09/17 04:26:38;;;;;;;47.47;2.92;;;;;;;;;;5109142;28;20081;-61
2021/09/17 04:29:04;;;;;;;47.30;3.30;;;;;;;;;;5109002;28;20031;-61
2021/09/17 04:31:31;;;;;;;39.88;1.90;;;;;;;;;;5111150;28;20102;-61
2021/09/17 04:33:58;;;;;;;12.73;1.98;;;;;;;;;;5111312;28;20041;-61
2021/09/17 04:36:24;;;;;;;24.10;1.83;;;;;;;;;;5110144;28;20015;-61
2021/09/17 04:38:50;;;;;;;62.67;2.13;;;;;;;;;;5107924;28;20031;-61
2021/09/17 04:41:16;;;;;;;15.40;1.45;;;;;;;;;;5102975;28;20047;-61
2021/09/17 04:43:42;;;;;;;32.35;2.22;;;;;;;;;;5108883;28;20111;-61
2021/09/17 04:46:08;;;;;;;23.45;1.73;;;;;;;;;;5108907;28;20027;-61
2021/09/17 04:48:34;;;;;;;62.83;2.90;;;;;;;;;;5098495;28;20039;-61
2021/09/17 04:51:00;;;;;;;59.08;2.58;;;;;;;;;;5106640;28;20027;-61
2021/09/17 04:53:27;;;;;;;49.08;2.08;;;;;;;;;;5104106;28;20027;-61
2021/09/17 04:55:53;;;;;;;54.83;2.53;;;;;;;;;;5093605;28;20072;-61
2021/09/17 04:58:19;;;;;;;57.72;2.42;;;;;;;;;;5092551;28;20086;-62
2021/09/17 05:00:45;;;;;;;51.20;2.55;;;;;;;;;;5111890;28;20016;-62
2021/09/17 05:03:11;;;;;;;101.43;3.53;;;;;;;;;;5108613;28;20370;-61
2021/09/17 05:05:37;;;;;;;83.35;3.00;;;;;;;;;;5108666;28;20027;-62
2021/09/17 05:08:03;;;;;;;33.10;1.90;;;;;;;;;;5108070;28;20042;-61
2021/09/17 05:10:29;;;;;;;93.30;3.42;;;;;;;;;;5108113;28;20080;-63
2021/09/17 05:12:55;;;;;;;53.78;2.72;;;;;;;;;;5111263;28;20038;-63
2021/09/17 05:15:21;;;;;;;30.48;1.80;;;;;;;;;;5108773;28;20024;-65
2021/09/17 05:17:48;;;;;;;81.90;3.13;;;;;;;;;;5108115;28;20031;-63
2021/09/17 05:20:14;;;;;;;172.82;6.22;;;;;;;;;;5108560;28;20034;-60
2021/09/17 05:22:40;;;;;;;146.13;4.90;;;;;;;;;;5097670;28;20399;-61
2021/09/17 05:25:06;;;;;;;204.82;5.68;;;;;;;;;;5109971;28;20042;-60
2021/09/17 05:27:32;;;;;;;135.82;4.45;;;;;;;;;;5109679;28;20051;-60
2021/09/17 05:29:59;;;;;;;30.25;1.80;;;;;;;;;;5108143;28;20043;-59
2021/09/17 05:32:25;;;;;;;40.83;2.15;;;;;;;;;;5108542;28;20027;-61
2021/09/17 05:34:51;;;;;;;72.38;3.20;;;;;;;;;;5109332;28;20023;-60
2021/09/17 05:37:17;;;;;;;134.88;5.45;;;;;;;;;;5108419;28;20020;-60
2021/09/17 05:39:43;;;;;;;65.70;2.15;;;;;;;;;;5109902;28;20068;-59
2021/09/17 05:42:09;;;;;;;72.30;2.90;;;;;;;;;;5108131;28;20027;-61
2021/09/17 05:44:35;;;;;;;69.35;2.80;;;;;;;;;;5107529;28;20107;-61
2021/09/17 05:47:01;;;;;;;50.88;2.58;;;;;;;;;;5107865;28;20030;-60
2021/09/17 05:49:27;;;;;;;53.97;4.25;;;;;;;;;;5108036;28;20040;-60
2021/09/17 05:51:53;;;;;;;44.22;2.40;;;;;;;;;;5109408;28;20019;-60
2021/09/17 05:54:20;;;;;;;36.10;1.83;;;;;;;;;;5108622;28;20050;-61
2021/09/17 05:56:45;;;;;;;36.72;2.30;;;;;;;;;;5107362;28;20020;-60
2021/09/17 05:59:11;;;;;;;5.07;1.77;;;;;;;;;;5108195;28;20034;-60
2021/09/17 06:01:37;;;;;;;10.68;1.70;;;;;;;;;;5108251;28;20479;-60
2021/09/17 06:04:03;;;;;;;20.83;1.77;;;;;;;;;;5110007;28;20055;-60
2021/09/17 06:06:29;;;;;;;9.90;1.73;;;;;;;;;;5108411;28;20470;-61
2021/09/17 06:08:57;;;;;;;6.30;1.65;;;;;;;;;;5102140;28;20146;-60
2021/09/17 06:11:23;;;;;;;28.20;2.38;;;;;;;;;;5108031;28;20080;-60
2021/09/17 06:13:49;;;;;;;39.35;2.80;;;;;;;;;;5107891;28;20077;-61
2021/09/17 06:16:15;;;;;;;88.97;3.22;;;;;;;;;;5108238;28;20024;-60
2021/09/17 06:18:41;;;;;;;22.70;2.10;;;;;;;;;;5110097;28;20020;-60
2021/09/17 06:21:07;;;;;;;33.33;2.25;;;;;;;;;;5107749;28;20028;-61
2021/09/17 06:23:33;;;;;;;150.85;4.32;;;;;;;;;;5107385;28;20031;-60
2021/09/17 06:25:59;;;;;;;99.05;3.50;;;;;;;;;;5106560;28;20034;-60
2021/09/17 06:28:25;;;;;;;137.55;3.78;;;;;;;;;;5111377;28;20044;-60
2021/09/17 06:30:51;;;;;;;235.93;5.93;;;;;;;;;;5114383;28;20059;-61
2021/09/17 06:33:18;;;;;;;78.72;3.95;;;;;;;;;;5111760;28;20024;-61
2021/09/17 06:35:44;;;;;;;135.20;3.97;;;;;;;;;;5110867;28;20055;-61
2021/09/17 06:38:10;;;;;;;37.35;2.05;;;;;;;;;;5110540;28;20077;-61
2021/09/17 06:40:36;;;;;;;79.30;2.63;;;;;;;;;;5111327;28;20020;-60
2021/09/17 06:43:02;;;;;;;29.02;1.50;;;;;;;;;;5105406;28;20027;-60
2021/09/17 06:45:29;;;;;;;33.25;1.38;;;;;;;;;;5103867;28;20035;-61
2021/09/17 06:47:58;;;;;;;11.98;1.15;;;;;;;;;;5105051;28;20028;-61
2021/09/17 06:50:25;;;;;;;3.50;0.90;;;;;;;;;;5108064;28;20023;-61
2021/09/17 06:52:53;;;;;;;4.43;1.20;;;;;;;;;;5111172;28;20088;-61
2021/09/17 06:55:21;;;;;;;3.63;0.80;;;;;;;;;;5110299;28;20019;-60
2021/09/17 06:57:52;;;;;;;0.88;0.77;;;;;;;;;;5110689;28;20579;-61
2021/09/17 07:00:19;;;;;;;3.70;0.80;;;;;;;;;;5113331;28;20172;-61
2021/09/17 07:02:45;;;;;;;2.40;0.60;;;;;;;;;;5105100;28;20475;-61
2021/09/17 07:05:12;;;;;;;1.95;0.60;;;;;;;;;;5108214;28;20032;-61
2021/09/17 07:07:38;;;;;;;3.55;0.77;;;;;;;;;;5109897;28;20424;-61
2021/09/17 07:10:05;;;;;;;2.58;0.60;;;;;;;;;;5112972;28;20495;-60
2021/09/17 07:12:31;;;;;;;2.65;0.52;;;;;;;;;;5112320;28;20391;-61
2021/09/17 07:14:57;;;;;;;2.38;0.70;;;;;;;;;;5110458;28;20051;-61
2021/09/17 07:17:23;;;;;;;4.30;0.57;;;;;;;;;;5110458;28;20081;-60
2021/09/17 07:19:49;;;;;;;0.75;0.32;;;;;;;;;;5106058;28;20040;-60
2021/09/17 07:22:15;;;;;;;6.82;0.70;;;;;;;;;;5110768;28;20028;-60
2021/09/17 07:24:41;;;;;;;4.82;0.57;;;;;;;;;;5113631;28;20050;-60
2021/09/17 07:27:07;;;;;;;3.30;0.60;;;;;;;;;;5102821;28;20095;-60
2021/09/17 07:29:33;;;;;;;0.80;0.30;;;;;;;;;;5104219;28;20498;-60
2021/09/17 07:31:59;;;;;;;2.15;0.40;;;;;;;;;;5110518;28;20028;-60
2021/09/17 07:34:25;;;;;;;1.95;0.50;;;;;;;;;;5109900;28;20528;-59
2021/09/17 07:36:51;;;;;;;2.28;0.47;;;;;;;;;;5113659;28;20027;-61
2021/09/17 07:39:17;;;;;;;1.20;0.45;;;;;;;;;;5110601;28;20068;-60
2021/09/17 07:41:43;;;;;;;1.73;0.50;;;;;;;;;;5109925;28;20028;-60
2021/09/17 07:44:09;;;;;;;1.35;0.52;;;;;;;;;;5108048;28;20027;-60
2021/09/17 07:46:35;;;;;;;1.75;0.60;;;;;;;;;;5096006;28;20032;-60
2021/09/17 07:49:01;;;;;;;4.45;0.50;;;;;;;;;;5112571;28;20087;-60
2021/09/17 07:51:27;;;;;;;4.43;0.43;;;;;;;;;;5101832;28;20111;-60
2021/09/17 07:53:53;;;;;;;1.75;0.40;;;;;;;;;;5098463;28;20028;-60
2021/09/17 07:56:19;;;;;;;2.38;0.60;;;;;;;;;;5100627;28;20032;-60
2021/09/17 07:58:45;;;;;;;6.15;0.50;;;;;;;;;;5109503;28;20027;-59
2021/09/17 08:01:11;;;;;;;2.53;0.40;;;;;;;;;;5111161;28;20036;-59
2021/09/17 08:03:37;;;;;;;3.00;0.50;;;;;;;;;;5111681;28;20030;-58
2021/09/17 08:06:03;;;;;;;7.03;0.68;;;;;;;;;;5109983;28;20024;-59
2021/09/17 08:08:29;;;;;;;1.23;0.35;;;;;;;;;;5109630;28;20028;-58
2021/09/17 08:10:55;;;;;;;2.38;0.43;;;;;;;;;;5108518;28;20113;-59
2021/09/17 08:13:22;;;;;;;1.08;0.50;;;;;;;;;;5109502;28;20027;-59
2021/09/17 08:15:48;;;;;;;3.60;0.40;;;;;;;;;;5111320;28;20088;-59
2021/09/17 08:18:14;;;;;;;0.65;0.40;;;;;;;;;;5107474;28;20036;-59
2021/09/17 08:20:47;;;;;;;1.13;0.40;;;;;;;;;;5108833;28;20637;-59
2021/09/17 08:23:13;;;;;;;1.30;0.40;;;;;;;;;;5106785;28;20036;-59
2021/09/17 08:25:39;;;;;;;2.75;0.40;;;;;;;;;;5105039;28;20036;-59
2021/09/17 08:28:05;;;;;;;3.92;0.50;;;;;;;;;;5093829;28;20078;-59
2021/09/17 08:30:32;;;;;;;2.13;0.60;;;;;;;;;;5104667;28;20071;-59
2021/09/17 08:32:58;;;;;;;4.32;0.50;;;;;;;;;;5104915;28;20035;-59
2021/09/17 08:35:24;;;;;;;1.98;0.30;;;;;;;;;;5107487;28;20076;-59
2021/09/17 08:37:50;;;;;;;2.53;0.40;;;;;;;;;;5108254;28;20428;-59
2021/09/17 08:40:16;;;;;;;2.70;0.50;;;;;;;;;;5109700;28;20024;-59
2021/09/17 08:42:43;;;;;;;1.48;0.40;;;;;;;;;;5111357;28;20491;-59
2021/09/17 08:45:09;;;;;;;0.75;0.40;;;;;;;;;;5099225;28;20097;-59
2021/09/17 08:47:36;;;;;;;1.33;0.40;;;;;;;;;;5102892;28;20031;-59
2021/09/17 08:50:02;;;;;;;1.42;0.30;;;;;;;;;;5107827;28;20099;-59
2021/09/17 08:52:28;;;;;;;2.45;0.40;;;;;;;;;;5108713;28;20054;-59
2021/09/17 08:54:54;;;;;;;1.30;0.40;;;;;;;;;;5109545;28;20085;-58
2021/09/17 08:57:20;;;;;;;3.30;0.40;;;;;;;;;;5109331;28;20110;-59
2021/09/17 08:59:46;;;;;;;4.68;0.70;;;;;;;;;;5108444;28;20154;-58
2021/09/17 09:02:23;;;;;;;2.63;0.30;;;;;;;;;;5099442;28;20103;-59
2021/09/17 09:05:18;;;;;;;4.68;0.30;;;;;;;;;;5108656;28;20024;-58
2021/09/17 09:07:45;;;;;;;4.32;0.52;;;;;;;;;;5082692;28;20490;-58
2021/09/17 09:10:13;;;;;;;1.90;0.50;;;;;;;;;;5093121;28;20118;-59
2021/09/17 09:12:43;;;;;;;3.00;0.40;;;;;;;;;;5110974;28;20023;-59
2021/09/17 09:15:13;;;;;;;2.20;0.30;;;;;;;;;;5107738;28;20031;-60
2021/09/17 09:17:39;;;;;;;1.40;0.35;;;;;;;;;;5108509;28;20070;-59
2021/09/17 09:20:25;;;;;;;0.63;0.22;;;;;;;;;;5108200;28;20023;-60
2021/09/17 09:23:04;;;;;;;2.38;0.28;;;;;;;;;;5096293;28;20451;-60
2021/09/17 09:25:30;;;;;;;2.25;0.32;;;;;;;;;;5093067;28;20023;-60
2021/09/17 09:28:12;;;;;;;1.90;0.35;;;;;;;;;;5093968;28;20044;-59
2021/09/17 09:30:39;;;;;;;1.13;0.35;;;;;;;;;;5110115;28;20023;-59
2021/09/17 09:33:25;;;;;;;2.25;0.30;;;;;;;;;;5107673;28;20103;-60
2021/09/17 09:36:10;;;;;;;2.28;0.50;;;;;;;;;;5096883;28;20035;-60
2021/09/17 09:38:41;;;;;;;2.92;0.30;;;;;;;;;;5106672;28;20425;-60
2021/09/17 09:41:09;;;;;;;2.92;0.30;;;;;;;;;;5108151;28;20025;-60
2021/09/17 09:43:35;;;;;;;;;;;;;;;;;;5108590;28;20020;-60
2021/09/17 09:46:21;;;;;;;0.63;0.40;;;;;;;;;;5108681;28;20006;-60
2021/09/17 09:48:59;;;;;;;3.17;0.52;;;;;;;;;;5092517;28;20075;-60
2021/09/17 09:51:35;;;;;;;1.20;0.38;;;;;;;;;;5110959;28;20035;-60
2021/09/17 09:54:03;;;;;;;0.40;0.30;;;;;;;;;;5108081;28;20023;-60
2021/09/17 09:56:29;;;;;;;;;;;;;;;;;;5108218;28;20026;-60
2021/09/17 09:58:55;;;;;;;2.00;0.40;;;;;;;;;;5107718;28;20278;-60
2021/09/17 10:01:22;;;;;;;0.73;0.40;;;;;;;;;;5108584;28;20032;-60
2021/09/17 10:03:49;;;;;;;0.50;0.30;;;;;;;;;;5111416;28;20027;-60
2021/09/17 10:06:15;;;;;;;1.67;0.30;;;;;;;;;;5112235;28;20028;-60
2021/09/17 10:08:41;;;;;;;2.17;0.40;;;;;;;;;;5110955;28;20110;-60
2021/09/17 10:11:07;;;;;;;0.90;0.63;;;;;;;;;;5112234;28;20103;-60
2021/09/17 10:13:34;;;;;;;1.67;0.32;;;;;;;;;;5111946;28;20024;-60
2021/09/17 10:16:00;;;;;;;2.00;0.28;;;;;;;;;;5114464;28;20047;-60
2021/09/17 10:18:26;;;;;;;1.17;0.40;;;;;;;;;;5113091;28;20032;-60
2021/09/17 10:20:53;;;;;;;2.22;0.43;;;;;;;;;;5111261;28;20308;-60
2021/09/17 10:23:32;;;;;;;0.52;0.30;;;;;;;;;;5111379;28;20027;-60
2021/09/17 10:26:00;;;;;;;3.50;0.30;;;;;;;;;;5111795;28;20047;-60
2021/09/17 10:28:26;;;;;;;2.10;0.40;;;;;;;;;;5111408;28;20399;-60
2021/09/17 10:30:52;;;;;;;0.88;0.30;;;;;;;;;;5107525;28;20026;-60
2021/09/17 10:33:25;;;;;;;0.85;0.40;;;;;;;;;;5110630;28;20507;-60
2021/09/17 10:35:52;;;;;;;0.93;0.40;;;;;;;;;;5109715;28;20499;-59
2021/09/17 10:38:18;;;;;;;0.30;0.30;;;;;;;;;;5109272;28;20092;-59
2021/09/17 10:40:49;;;;;;;3.80;0.30;;;;;;;;;;5110342;28;20038;-59
2021/09/17 10:43:17;;;;;;;0.88;0.35;;;;;;;;;;5109849;28;20028;-60
2021/09/17 10:45:47;;;;;;;2.28;0.40;;;;;;;;;;5112537;28;20131;-59
2021/09/17 10:48:14;;;;;;;0.30;0.30;;;;;;;;;;5109839;28;20039;-59
2021/09/17 10:50:46;;;;;;;1.58;0.50;;;;;;;;;;5109635;28;20074;-59
2021/09/17 10:53:13;;;;;;;1.70;0.47;;;;;;;;;;5110120;28;20487;-59
2021/09/17 10:55:45;;;;;;;0.60;0.30;;;;;;;;;;5109874;28;20117;-59
2021/09/17 10:58:21;;;;;;;1.38;0.32;;;;;;;;;;5106574;28;20067;-59
2021/09/17 11:00:56;;;;;;;1.80;0.40;;;;;;;;;;5100658;28;20032;-59
2021/09/17 11:03:38;;;;;;;0.35;0.30;;;;;;;;;;5112221;28;20023;-60
2021/09/17 11:06:23;;;;;;;2.67;0.40;;;;;;;;;;5110545;28;20038;-59
2021/09/17 11:08:49;;;;;;;1.23;0.40;;;;;;;;;;5109958;28;20538;-59
2021/09/17 11:11:24;;;;;;;0.90;0.47;;;;;;;;;;5110560;28;20482;-60
2021/09/17 11:13:51;;;;;;;0.60;0.38;;;;;;;;;;5110044;28;20475;-60
2021/09/17 11:16:18;;;;;;;1.95;0.52;;;;;;;;;;5107398;28;20020;-60
2021/09/17 11:19:11;;;;;;;1.23;0.40;;;;;;;;;;5113216;28;20463;-60
2021/09/17 11:21:44;;;;;;;0.80;0.40;;;;;;;;;;5109397;28;20487;-60
2021/09/17 11:24:17;;;;;;;2.10;0.60;;;;;;;;;;5110076;28;20032;-60
2021/09/17 11:26:44;;;;;;;0.98;0.50;;;;;;;;;;5111118;28;20020;-60
2021/09/17 11:29:12;;;;;;;0.73;0.38;;;;;;;;;;5109779;28;20518;-60
2021/09/17 11:31:42;;;;;;;0.85;0.50;;;;;;;;;;5101902;28;20028;-59
2021/09/17 11:34:10;;;;;;;2.17;0.45;;;;;;;;;;5111819;28;20019;-59
2021/09/17 11:36:44;;;;;;;1.65;0.60;;;;;;;;;;5111686;28;20016;-59
2021/09/17 11:39:18;;;;;;;2.70;0.60;;;;;;;;;;5107887;28;20050;-59
2021/09/17 11:41:45;;;;;;;2.08;0.70;;;;;;;;;;5109637;28;20020;-59
2021/09/17 11:44:26;;;;;;;3.17;0.63;;;;;;;;;;5109612;28;20031;-60
2021/09/17 11:46:55;;;;;;;1.45;0.60;;;;;;;;;;5110178;28;20024;-59
2021/09/17 11:49:28;;;;;;;0.82;0.45;;;;;;;;;;5093406;28;20047;-60
2021/09/17 11:51:58;;;;;;;0.80;0.50;;;;;;;;;;5109201;28;20024;-59
2021/09/17 11:54:24;;;;;;;0.65;0.40;;;;;;;;;;5112006;28;20019;-59
2021/09/17 11:57:04;;;;;;;2.58;0.57;;;;;;;;;;5109326;28;20469;-59
2021/09/17 11:59:43;;;;;;;1.30;0.70;;;;;;;;;;5110036;28;20023;-59
2021/09/17 12:02:19;;;;;;;0.60;0.50;;;;;;;;;;5100370;28;20019;-59
2021/09/17 12:04:48;;;;;;;1.42;0.60;;;;;;;;;;5109465;28;20024;-59
2021/09/17 12:07:15;;;;;;;2.90;0.55;;;;;;;;;;5110506;28;20507;-59
2021/09/17 12:09:41;;;;;;;2.85;0.50;;;;;;;;;;5111631;28;20039;-60
2021/09/17 12:12:07;;;;;;;6.00;0.60;;;;;;;;;;5109651;28;20104;-59
2021/09/17 12:14:33;;;;;;;0.63;0.50;;;;;;;;;;5108928;28;20043;-59
2021/09/17 12:17:06;;;;;;;1.30;0.57;;;;;;;;;;5109335;28;20023;-59
2021/09/17 12:19:51;;;;;;;0.93;0.40;;;;;;;;;;5109253;28;20074;-59
2021/09/17 12:22:26;;;;;;;1.75;0.50;;;;;;;;;;5109930;28;20417;-59
2021/09/17 12:25:00;;;;;;;1.25;0.70;;;;;;;;;;5108104;28;20100;-59
2021/09/17 12:27:30;;;;;;;1.48;0.47;;;;;;;;;;5110202;28;20044;-59
2021/09/17 12:30:00;;;;;;;1.42;0.50;;;;;;;;;;5107572;28;20058;-72
2021/09/17 12:32:26;;;;;;;2.00;0.68;;;;;;;;;;5108486;28;20591;-71
2021/09/17 12:35:03;;;;;;;0.65;0.50;;;;;;;;;;5108599;28;20483;-71
2021/09/17 12:37:29;;;;;;;3.10;0.57;;;;;;;;;;5096983;28;20072;-71
2021/09/17 12:40:07;;;;;;;4.72;0.82;;;;;;;;;;5110760;28;20023;-71
2021/09/17 12:42:33;;;;;;;2.90;0.65;;;;;;;;;;5109837;28;20103;-71
2021/09/17 12:45:02;;;;;;;2.80;0.63;;;;;;;;;;5108213;28;20099;-71
2021/09/17 12:47:28;;;;;;;0.90;0.60;;;;;;;;;;5108672;28;20471;-71
2021/09/17 12:50:04;;;;;;;4.00;0.70;;;;;;;;;;5108647;28;20047;-71
2021/09/17 12:52:33;;;;;;;1.80;0.85;;;;;;;;;;5098723;28;20131;-71
2021/09/17 12:54:59;;;;;;;1.30;0.55;;;;;;;;;;5110487;28;20023;-71
2021/09/17 12:57:26;;;;;;;3.13;0.60;;;;;;;;;;5109569;28;20028;-71
2021/09/17 12:59:59;;;;;;;0.40;0.40;;;;;;;;;;5100490;28;20132;-71
2021/09/17 13:02:25;;;;;;;1.52;0.50;;;;;;;;;;5100936;28;20030;-71
2021/09/17 13:04:58;;;;;;;3.33;0.60;;;;;;;;;;5108355;28;20027;-71
2021/09/17 13:07:24;;;;;;;1.70;0.70;;;;;;;;;;5097268;28;20378;-71
2021/09/17 13:09:50;;;;;;;1.05;0.60;;;;;;;;;;5099274;28;20035;-71
2021/09/17 13:12:16;;;;;;;0.45;0.40;;;;;;;;;;5107950;28;20052;-71
2021/09/17 13:14:42;;;;;;;0.55;0.32;;;;;;;;;;5106997;28;20059;-72
2021/09/17 13:17:08;;;;;;;1.25;0.47;;;;;;;;;;5108370;28;20382;-71
2021/09/17 13:19:34;;;;;;;1.02;0.40;;;;;;;;;;5108272;28;20035;-72
2021/09/17 13:22:00;;;;;;;4.47;0.63;;;;;;;;;;5109890;28;20024;-71
2021/09/17 13:24:26;;;;;;;0.65;0.50;;;;;;;;;;5108985;28;20474;-71
2021/09/17 13:26:52;;;;;;;1.50;0.50;;;;;;;;;;5107928;28;20073;-71
2021/09/17 13:29:18;;;;;;;1.95;0.50;;;;;;;;;;5107893;28;20466;-71
2021/09/17 13:31:44;;;;;;;0.63;0.50;;;;;;;;;;5107887;28;20022;-71
2021/09/17 13:34:10;;;;;;;1.00;0.50;;;;;;;;;;5109026;28;20046;-71
2021/09/17 13:36:36;;;;;;;1.58;0.50;;;;;;;;;;5108863;28;20020;-71
2021/09/17 13:39:02;;;;;;;1.60;0.60;;;;;;;;;;5106787;28;20034;-71
2021/09/17 13:41:28;;;;;;;0.75;0.47;;;;;;;;;;5108238;28;20023;-71
2021/09/17 13:43:54;;;;;;;1.88;0.60;;;;;;;;;;5107761;28;20023;-71
2021/09/17 13:46:20;;;;;;;1.00;0.55;;;;;;;;;;5092234;28;20383;-71
2021/09/17 13:48:46;;;;;;;1.15;0.40;;;;;;;;;;5110599;28;20075;-71
2021/09/17 13:51:13;;;;;;;3.13;0.50;;;;;;;;;;5107519;28;20040;-71
2021/09/17 13:53:41;;;;;;;1.52;0.57;;;;;;;;;;5107627;28;20402;-72
2021/09/17 13:56:07;;;;;;;1.88;0.63;;;;;;;;;;5108184;28;20026;-71
2021/09/17 13:58:33;;;;;;;2.10;0.50;;;;;;;;;;5108337;28;20448;-71
2021/09/17 14:00:59;;;;;;;1.95;0.55;;;;;;;;;;5109784;28;20039;-71
2021/09/17 14:03:25;;;;;;;1.42;0.50;;;;;;;;;;5099955;28;20633;-70
2021/09/17 14:05:52;;;;;;;2.42;0.60;;;;;;;;;;5103961;28;20020;-71
2021/09/17 14:08:18;;;;;;;2.25;0.75;;;;;;;;;;5104201;28;20020;-70
2021/09/17 14:10:44;;;;;;;1.58;0.70;;;;;;;;;;5102332;28;20028;-70
2021/09/17 14:13:10;;;;;;;1.42;0.70;;;;;;;;;;5103646;28;20023;-70
2021/09/17 14:15:36;;;;;;;1.80;0.60;;;;;;;;;;5098558;28;20440;-70
2021/09/17 14:18:03;;;;;;;1.90;0.70;;;;;;;;;;5095984;28;20031;-70
2021/09/17 14:20:29;;;;;;;1.70;0.80;;;;;;;;;;5100318;28;20020;-70
2021/09/17 14:22:56;;;;;;;0.73;0.60;;;;;;;;;;5107384;28;20102;-70
2021/09/17 14:25:22;;;;;;;1.85;0.75;;;;;;;;;;5108311;28;20019;-70
2021/09/17 14:27:48;;;;;;;2.40;0.80;;;;;;;;;;5106838;28;20048;-70
2021/09/17 14:30:14;;;;;;;3.53;0.80;;;;;;;;;;5103541;28;20043;-71
2021/09/17 14:32:40;;;;;;;3.03;0.80;;;;;;;;;;5106641;28;20471;-71
2021/09/17 14:35:06;;;;;;;2.17;0.80;;;;;;;;;;5106960;28;20433;-70
2021/09/17 14:37:32;;;;;;;2.95;0.70;;;;;;;;;;5107504;28;20383;-71
2021/09/17 14:39:59;;;;;;;9.15;1.92;;;;;;;;;;5095493;28;20032;-70